Terminal Aerodrome Forecast
Issued by NWS

Home | Current Version | Previous Version | Text Only | Print | Product List | Glossary On
Versions: 1 2 3 4 5 6 7 8 9 10 11 12 13
000
FTUS43 KMPX 210520
TAFAXN
TAF
KAXN 210520Z 2106/2206 18019G25KT P6SM BKN080
     FM211200 17017KT P6SM VCSH OVC025
     FM211600 18014G23KT 6SM -RA OVC015
     FM212100 26011KT P6SM OVC040
     FM220000 27010KT P6SM BKN090=

USA.gov is the U.S. government's official web portal to all federal, state and local government web resources and services.